Flight Track Log - Related Links

Times and Time Zones

All times are in EST time to prevent confusion due to time zone crossing. See the N77VZ flight status page for this flight to view local times or setup timezone preferences in your user account.

Time Position Orientation Groundspeed Altitude Reporting Facility
EST Latitude Longitude Course Direction KTS MPH feet Rate Location/Type
Thu 04:11:05 PM 35.8078 -81.0814 295° West 343 395 5,600  Level Atlanta Center
Thu 04:12:05 PM 35.8367 -81.1569 295° West 286 329 7,700 2,100 Climbing Atlanta Center
Thu 04:13:05 PM 35.8656 -81.2381 294° West 266 306 9,800 2,300 Climbing Atlanta Center
Thu 04:14:05 PM 35.8386 -81.3286 250° West 242 278 12,300 2,250 Climbing Atlanta Center
Thu 04:15:05 PM 35.8133 -81.4114 249° West 247 284 14,300 1,800 Climbing Atlanta Center
Thu 04:16:05 PM 35.7836 -81.4942 246° West 258 297 15,900 1,350 Climbing Atlanta Center
Thu 04:17:05 PM 35.7519 -81.5822 246° West 263 303 17,000 1,200 Climbing Atlanta Center
Thu 04:18:05 PM 35.7206 -81.6703 246° West 281 323 18,300 1,500 Climbing Atlanta Center
Thu 04:19:05 PM 35.6908 -81.7606 248° West 281 323 20,000 1,650 Climbing Atlanta Center
Thu 04:20:05 PM 35.6589 -81.8458 245° Southwest 281 323 21,600 1,600 Climbing Atlanta Center
Thu 04:21:05 PM 35.6314 -81.9333 249° West 276 318 23,200 1,450 Climbing Atlanta Center
Thu 04:22:05 PM 35.5994 -82.0186 245° Southwest 276 318 24,500 1,250 Climbing Atlanta Center
Thu 04:23:05 PM 35.5694 -82.1061 247° West 276 318 25,700 1,200 Climbing Atlanta Center
Thu 04:24:05 PM 35.5375 -82.1961 246° West 281 323 26,900 1,200 Climbing Atlanta Center
Thu 04:25:05 PM 35.5075 -82.2836 247° West 281 323 28,100 1,200 Climbing Atlanta Center
Thu 04:26:05 PM 35.4753 -82.3708 246° West 281 323 29,300 1,200 Climbing Atlanta Center
Thu 04:27:05 PM 35.4453 -82.4556 247° West 281 323 30,500 1,200 Climbing Atlanta Center
Thu 04:28:05 PM 35.4150 -82.5378 246° West 276 318 31,700 1,050 Climbing Atlanta Center
Thu 04:29:05 PM 35.3886 -82.6097 246° West 282 325 32,600 950 Climbing Atlanta Center
Thu 04:30:05 PM 35.3564 -82.6992 246° West 277 319 33,600 1,000 Climbing Atlanta Center
Thu 04:31:05 PM 35.3258 -82.7839 246° West 277 319 34,600 950 Climbing Atlanta Center
Thu 04:32:05 PM 35.2975 -82.8631 246° West 277 319 35,500 1,050 Climbing Atlanta Center
Thu 04:33:05 PM 35.2650 -82.9500 245° Southwest 272 313 36,700 1,000 Climbing Atlanta Center
Thu 04:34:05 PM 35.2364 -83.0267 245° Southwest 272 313 37,500 650 Climbing Atlanta Center
Thu 04:35:05 PM 35.2056 -83.1083 245° Southwest 272 313 38,000 250 Climbing Atlanta Center
Thu 04:36:05 PM 35.1731 -83.1978 246° West 283 326 38,000 250 Level Atlanta Center
Thu 04:37:05 PM 35.1403 -83.2947 248° West 296 341 38,500 650 Climbing Atlanta Center
Thu 04:38:05 PM 35.1053 -83.3839 244° Southwest 301 346 39,300 750 Climbing Atlanta Center
Thu 04:39:05 PM 35.0703 -83.4781 246° West 296 341 40,000 350 Climbing Atlanta Center
Thu 04:40:05 PM 35.0372 -83.5694 246° West 296 341 40,000  Level Atlanta Center
Thu 04:41:05 PM 35.0019 -83.6661 246° West 296 341 40,000  Level Atlanta Center
Thu 04:42:05 PM 34.9669 -83.7600 246° West 302 348 40,000  Level Atlanta Center
Thu 04:43:05 PM 34.9275 -83.8639 245° Southwest 302 348 40,000  Level Atlanta Center
Thu 04:44:05 PM 34.8942 -83.9528 245° Southwest 308 354 40,000  Level Atlanta Center
Thu 04:45:05 PM 34.8567 -84.0489 245° Southwest 314 361 40,000 250 Level Atlanta Center
Thu 04:46:05 PM 34.8211 -84.1475 246° West 314 361 40,500 500 Climbing Atlanta Center
Thu 04:47:05 PM 34.7856 -84.2436 246° West 302 348 41,000 250 Climbing Atlanta Center
Thu 04:48:05 PM 34.7497 -84.3397 246° West 300 345 41,000  Level Atlanta Center
Thu 04:49:05 PM 34.7161 -84.4331 246° West 300 345 41,000  Level Atlanta Center
Thu 04:50:05 PM 34.6803 -84.5289 246° West 306 352 41,000  Level Atlanta Center
Thu 04:51:05 PM 34.6444 -84.6219 245° Southwest 311 358 41,000  Level Atlanta Center
Thu 04:52:05 PM 34.6083 -84.7178 245° Southwest 311 358 41,000  Level Atlanta Center
Thu 04:53:05 PM 34.5744 -84.8108 246° West 311 358 41,000  Level Atlanta Center
Thu 04:54:05 PM 34.5364 -84.9036 244° Southwest 311 358 41,000  Level Atlanta Center
Thu 04:55:05 PM 34.5003 -84.9967 245° Southwest 311 358 41,000  Level Atlanta Center
Thu 04:56:05 PM 34.4639 -85.0894 245° Southwest 311 358 41,000  Level Atlanta Center
Thu 04:57:05 PM 34.4256 -85.1819 243° Southwest 306 352 41,000  Level Atlanta Center
Thu 04:58:05 PM 34.3914 -85.2697 245° Southwest 306 352 41,000  Level Atlanta Center
Thu 04:59:05 PM 34.3569 -85.3675 247° West 306 352 41,000  Level Atlanta Center
Thu 05:00:05 PM 34.3267 -85.4475 245° Southwest 306 352 41,000  Level Atlanta Center
Thu 05:01:05 PM 34.2903 -85.5397 244° Southwest 300 345 41,000  Level Atlanta Center
Thu 05:02:05 PM 34.2556 -85.6322 246° West 300 345 41,000  Level Atlanta Center
Thu 05:03:05 PM 34.2189 -85.7219 244° Southwest 300 345 41,000  Level Atlanta Center
Thu 05:04:05 PM 34.1778 -85.8242 244° Southwest 300 345 41,000  Level Atlanta Center
Thu 05:05:05 PM 34.1433 -85.8986 241° Southwest 295 339 41,000  Level Atlanta Center
Thu 05:06:05 PM 34.1067 -85.9881 244° Southwest 300 345 41,000  Level Atlanta Center
Thu 05:07:05 PM 34.0694 -86.0825 245° Southwest 300 345 41,000  Level Atlanta Center
Thu 05:08:05 PM 34.0347 -86.1719 245° Southwest 300 345 41,000  Level Atlanta Center
Thu 05:09:05 PM 33.9975 -86.2639 244° Southwest 300 345 41,000  Level Atlanta Center
Thu 05:10:05 PM 33.9603 -86.3531 243° Southwest 300 345 41,000  Level Atlanta Center
Thu 05:11:05 PM 33.9231 -86.4422 243° Southwest 300 345 41,000  Level Atlanta Center
Thu 05:12:05 PM 33.8881 -86.5336 245° Southwest 300 345 41,000  Level Atlanta Center
Thu 05:13:05 PM 33.8506 -86.6228 243° Southwest 300 345 41,000  Level Atlanta Center
Thu 05:14:05 PM 33.8133 -86.7117 243° Southwest 300 345 41,000  Level Atlanta Center
Thu 05:15:05 PM 33.7778 -86.8003 244° Southwest 300 345 41,000  Level Atlanta Center
Thu 05:16:05 PM 33.7425 -86.8917 245° Southwest 300 345 41,000  Level Atlanta Center
Thu 05:17:05 PM 33.7050 -86.9803 243° Southwest 300 345 41,000  Level Atlanta Center
Thu 05:18:05 PM 33.6650 -87.0764 243° Southwest 300 345 41,000  Level Atlanta Center
Thu 05:19:05 PM 33.6294 -87.1647 244° Southwest 300 345 41,000  Level Atlanta Center
Thu 05:20:05 PM 33.5917 -87.2533 243° Southwest 300 345 41,000  Level Atlanta Center
Thu 05:21:49 PM 33.5311 -87.4061 245° Southwest 294 338 41,000  Level Memphis Center
Thu 05:22:51 PM 33.4939 -87.4939 243° Southwest 295 339 41,000  Level Memphis Center
Thu 05:23:53 PM 33.4578 -87.5828 244° Southwest 295 339 41,000  Level Memphis Center
Thu 05:24:55 PM 33.4211 -87.6706 243° Southwest 295 339 41,000  Level Memphis Center
Thu 05:25:57 PM 33.3836 -87.7597 243° Southwest 298 343 41,000  Level Memphis Center
Thu 05:26:59 PM 33.3456 -87.8478 243° Southwest 298 343 41,000  Level Memphis Center
Thu 05:28:01 PM 33.3011 -87.9558 244° Southwest 301 346 41,000  Level Memphis Center
Thu 05:29:03 PM 33.2636 -88.0444 243° Southwest 300 345 41,000  Level Memphis Center
Thu 05:30:05 PM 33.2256 -88.1333 243° Southwest 301 346 41,000  Level Memphis Center
Thu 05:31:07 PM 33.1872 -88.2242 243° Southwest 299 344 41,000  Level Memphis Center
Thu 05:32:09 PM 33.1489 -88.3128 243° Southwest 301 346 41,000  Level Memphis Center
Thu 05:33:12 PM 33.1117 -88.4017 243° Southwest 302 348 41,000  Level Memphis Center
Thu 05:34:14 PM 33.0742 -88.4900 243° Southwest 301 346 41,000  Level Memphis Center
Thu 05:35:16 PM 33.0289 -88.5975 243° Southwest 303 349 41,000  Level Memphis Center
Thu 05:36:18 PM 32.9900 -88.6872 243° Southwest 304 350 41,000  Level Memphis Center
Thu 05:37:20 PM 32.9508 -88.7761 242° Southwest 305 351 41,000  Level Memphis Center
Thu 05:38:22 PM 32.9122 -88.8664 243° Southwest 307 353 41,000  Level Memphis Center
Thu 05:39:24 PM 32.8731 -88.9547 242° Southwest 304 350 41,000  Level Memphis Center
Thu 05:40:26 PM 32.8269 -89.0619 243° Southwest 305 351 41,000  Level Memphis Center
Thu 05:41:29 PM 32.7878 -89.1522 243° Southwest 307 353 41,000  Level Memphis Center
Thu 05:42:31 PM 32.7492 -89.2406 243° Southwest 304 350 41,000  Level Memphis Center
Thu 05:43:33 PM 32.7094 -89.3300 242° Southwest 306 352 41,000  Level Memphis Center
Thu 05:44:35 PM 32.6700 -89.4194 242° Southwest 306 352 41,000  Level Memphis Center
Thu 05:45:37 PM 32.6225 -89.5272 242° Southwest 307 353 41,000  Level Memphis Center
Thu 05:46:39 PM 32.5822 -89.6169 242° Southwest 308 354 41,000  Level Memphis Center
Thu 05:47:41 PM 32.5428 -89.7069 243° Southwest 308 354 41,000  Level Memphis Center
Thu 05:48:43 PM 32.5033 -89.7961 242° Southwest 307 353 41,000  Level Memphis Center
Thu 05:49:45 PM 32.4639 -89.8856 242° Southwest 307 353 41,000 -145 Level Memphis Center
Thu 05:50:47 PM 32.4231 -89.9756 242° Southwest 309 356 40,700 -484 Descending Memphis Center
Thu 05:51:49 PM 32.3744 -90.0856 242° Southwest 314 361 40,000 -339 Descending Memphis Center
Thu 05:52:51 PM 32.3328 -90.1789 242° Southwest 320 368 40,000  Level Memphis Center
Thu 05:53:53 PM 32.2914 -90.2694 242° Southwest 315 362 40,000  Level Memphis Center
Thu 05:54:55 PM 32.2506 -90.3594 242° Southwest 313 360 40,000  Level Memphis Center
Thu 05:55:57 PM 32.2106 -90.4503 243° Southwest 313 360 40,000  Level Memphis Center
Thu 05:56:59 PM 32.1700 -90.5400 242° Southwest 312 359 40,000  Level Memphis Center
Thu 05:57:54 PM 32.1278 -90.6325 242° Southwest 313 360 40,000  Level Houston Center
Thu 05:58:56 PM 32.0869 -90.7228 242° Southwest 313 360 40,000  Level Houston Center
Thu 05:59:58 PM 32.0408 -90.8239 242° Southwest 312 359 40,000  Level Houston Center
Thu 06:01:01 PM 31.9994 -90.9119 241° Southwest 308 354 40,000  Level Houston Center
Thu 06:02:03 PM 31.9586 -91.0019 242° Southwest 310 357 40,000  Level Houston Center
Thu 06:03:05 PM 31.9183 -91.0917 242° Southwest 310 357 40,000  Level Houston Center
Thu 06:04:07 PM 31.8769 -91.1806 241° Southwest 311 358 40,000  Level Houston Center
Thu 06:05:09 PM 31.8278 -91.2883 242° Southwest 310 357 40,000  Level Houston Center
Thu 06:06:11 PM 31.7861 -91.3772 241° Southwest 312 359 40,000  Level Houston Center
Thu 06:07:13 PM 31.7436 -91.4658 241° Southwest 313 360 40,000  Level Houston Center
Thu 06:08:16 PM 31.7028 -91.5558 242° Southwest 312 359 40,000  Level Houston Center
Thu 06:09:18 PM 31.6586 -91.6503 241° Southwest 313 360 40,000  Level Houston Center
Thu 06:10:20 PM 31.6189 -91.7339 241° Southwest 312 359 40,000  Level Houston Center
Thu 06:11:22 PM 31.5697 -91.8408 242° Southwest 312 359 40,000  Level Houston Center
Thu 06:12:24 PM 31.5269 -91.9292 240° Southwest 313 360 40,000  Level Houston Center
Thu 06:13:26 PM 31.4844 -92.0197 241° Southwest 317 365 40,000  Level Houston Center
Thu 06:14:28 PM 31.4414 -92.1114 241° Southwest 315 362 40,000  Level Houston Center
Thu 06:15:30 PM 31.3983 -92.2017 241° Southwest 316 364 40,000  Level Houston Center
Thu 06:16:32 PM 31.3556 -92.2914 241° Southwest 316 364 40,000  Level Houston Center
Thu 06:17:35 PM 31.3033 -92.4008 241° Southwest 319 367 40,000  Level Houston Center
Thu 06:18:37 PM 31.2608 -92.4897 241° Southwest 318 366 40,000  Level Houston Center
Thu 06:19:39 PM 31.2250 -92.5836 246° West 316 364 40,000  Level Houston Center
Thu 06:20:41 PM 31.1914 -92.6783 247° West 317 365 40,000  Level Houston Center
Thu 06:21:43 PM 31.1567 -92.7728 247° West 316 364 40,000  Level Houston Center
Thu 06:22:45 PM 31.1222 -92.8664 247° West 315 362 40,000  Level Houston Center
Thu 06:23:47 PM 31.0800 -92.9806 247° West 319 367 40,000 -290 Level Houston Center
Thu 06:24:49 PM 31.0442 -93.0758 246° West 322 371 39,400 -768 Descending Houston Center
Thu 06:25:52 PM 31.0086 -93.1711 246° West 322 371 38,400 -1,344 Descending Houston Center
Thu 06:26:54 PM 30.9733 -93.2650 246° West 319 367 36,600 -1,935 Descending Houston Center
Thu 06:27:56 PM 30.9400 -93.3572 247° West 312 359 34,400 -2,323 Descending Houston Center
Thu 06:28:58 PM 30.8978 -93.4667 246° West 312 359 31,800 -2,323 Descending Houston Center
Thu 06:30:00 PM 30.8603 -93.5675 247° West 336 387 29,600 -2,081 Descending Houston Center
Thu 06:31:02 PM 30.8208 -93.6686 246° West 345 397 27,500 -2,226 Descending Houston Center
Thu 06:32:04 PM 30.7828 -93.7708 247° West 346 398 25,000 -2,371 Descending Houston Center
Thu 06:33:06 PM 30.7444 -93.8717 246° West 344 396 22,600 -2,544 Descending Houston Center
Thu 06:34:09 PM 30.6986 -93.9911 246° West 341 392 19,700 -2,448 Descending Houston Center
Thu 06:35:11 PM 30.6628 -94.0842 246° West 322 371 17,500 -2,177 Descending Houston Center
Thu 06:36:13 PM 30.6300 -94.1714 246° West 300 345 15,200 -2,274 Descending Houston Center
Thu 06:37:15 PM 30.5956 -94.2597 246° West 300 345 12,800 -2,516 Descending Houston Center
Thu 06:37:46 PM 30.5739 -94.3150 246° West 297 342 11,300 -2,323 Descending Houston Center
Thu 06:38:17 PM 30.5628 -94.3450 247° West 291 335 10,400 -2,418 Descending Houston Center
Thu 06:38:53 PM 30.5350 -94.4125 244° Southwest 287 330 8,600 -2,323 Descending Houston Center
Thu 06:39:19 PM 30.5239 -94.4444 248° West 282 325 8,000 -581 Descending Houston Center
Thu 06:39:55 PM 30.5050 -94.4917 245° Southwest 271 312 8,000  Level Houston Center
Thu 06:40:21 PM 30.4928 -94.5219 245° Southwest 270 311 8,000  Level Houston Center
Thu 06:40:56 PM 30.4636 -94.5625 230° Southwest 257 296 8,000  Level Houston Center
Thu 06:41:23 PM 30.4475 -94.5883 234° Southwest 263 303 8,000  Level Houston Center
Thu 06:41:57 PM 30.4200 -94.6336 235° Southwest 253 291 8,000  Level Houston Center
Thu 06:42:26 PM 30.4069 -94.6556 235° Southwest 251 289 8,000  Level Houston Center
Thu 06:42:59 PM 30.3814 -94.6919 231° Southwest 222 255 8,000  Level Houston Center
Thu 06:43:28 PM 30.3703 -94.7089 233° Southwest 222 255 8,000  Level Houston Center
Thu 06:43:55 PM 30.3467 -94.7447 233° Southwest 225 259 8,000  Level Houston Center
Thu 06:44:30 PM 30.3336 -94.7664 235° Southwest 221 254 8,000  Level Houston Center
Thu 06:44:56 PM 30.3119 -94.8000 233° Southwest 217 250 8,000  Level Houston Center
Thu 06:45:32 PM 30.2903 -94.8333 233° Southwest 216 249 8,000  Level Houston Center
Thu 06:45:57 PM 30.2756 -94.8578 235° Southwest 217 250 8,000  Level Houston Center
Thu 06:46:34 PM 30.2536 -94.8900 232° Southwest 219 252 8,000  Level Houston Center
Thu 06:46:59 PM 30.2350 -94.9186 233° Southwest 229 264 8,000  Level Houston Center
Thu 06:47:36 PM 30.2169 -94.9503 237° Southwest 227 261 8,000  Level Houston Center
Thu 06:48:00 PM 30.1989 -94.9789 234° Southwest 219 252 8,000  Level Houston Center
Thu 06:48:38 PM 30.1794 -95.0061 230° Southwest 223 257 8,000  Level Houston Center
Thu 06:49:07 PM 30.1544 -95.0447 233° Southwest 235 270 8,000  Level Houston Center
Thu 06:49:40 PM 30.1414 -95.0661 235° Southwest 229 264 8,000  Level Houston Center
Thu 06:50:09 PM 30.1019 -95.0875 205° Southwest 238 274 8,000  Level Houston Center
Thu 06:51:16 PM 30.0392 -95.1122 199° South 225 259 8,000  Level Houston Center
Thu 06:51:45 PM 30.0094 -95.1244 200° South 226 260 8,000  Level Houston Center
Thu 06:52:12 PM 29.9844 -95.1358 202° Southwest 223 257 8,000  Level Houston Center
Thu 06:52:47 PM 29.9517 -95.1492 199° South 224 258 8,000  Level Houston Center
Thu 06:53:13 PM 29.9197 -95.1631 201° Southwest 224 258 8,000  Level Houston Center
Thu 06:53:49 PM 29.8936 -95.1739 200° South 223 257 8,000 -109 Level Houston Center
Thu 06:54:08 PM 29.8675 -95.1864 203° Southwest 222 255 7,900 -677 Descending Houston Center
Thu 06:54:51 PM 29.8367 -95.1986 199° South 220 253 7,300 -1,059 Descending Houston Center
Thu 06:55:16 PM 29.8069 -95.2131 203° Southwest 210 242 6,700 -1,161 Descending Houston Center
Thu 06:55:53 PM 29.7828 -95.2214 197° South 209 241 6,100 -689 Descending Houston Center
Thu 06:56:17 PM 29.7503 -95.2367 202° Southwest 204 235 6,000 -97 Descending Houston Center
Thu 06:56:55 PM 29.7228 -95.2475 199° South 195 224 6,000  Level Houston Center
Thu 06:57:18 PM 29.7017 -95.2569 201° Southwest 180 207 6,000  Level Houston Center
Thu 06:57:57 PM 29.6753 -95.2678 200° South 186 214 6,000  Level Houston Center
Thu 06:58:20 PM 29.6558 -95.2819 212° Southwest 188 216 6,000  Level Houston Center
Thu 06:59:00 PM 29.6458 -95.3103 248° West 193 222 6,000  Level Houston Center
Thu 06:59:21 PM 29.6336 -95.3375 243° Southwest 186 214 6,000  Level Houston Center
Thu 07:00:02 PM 29.6197 -95.3622 237° Southwest 191 220 6,000 -107 Level Houston Center
Thu 07:00:17 PM 29.6108 -95.3858 247° West 187 215 5,900 -871 Descending Houston Center
Thu 07:01:04 PM 29.6275 -95.4172 301° West 212 244 5,100 -1,433 Descending Houston Center
Thu 07:01:24 PM 29.6475 -95.4439 311° West 224 258 4,300 -1,065 Descending Houston Center
Thu 07:02:06 PM 29.6764 -95.4797 313° West 218 251 4,000 -327 Descending Houston Center
Thu 07:02:19 PM 29.6833 -95.4900 308° West 211 243 4,000  Level Houston Center
Thu 07:03:08 PM 29.7150 -95.5303 312° West 214 246 4,000  Level Houston Center
Thu 07:03:20 PM 29.7261 -95.5475 307° West 217 250 4,000  Level Houston Center
Thu 07:04:10 PM 29.7542 -95.5825 313° West 214 246 4,000  Level Houston Center
Thu 07:04:22 PM 29.7664 -95.5981 312° West 215 247 4,000 -740 Level Houston Center
Thu 07:05:23 PM 29.8167 -95.5969 North 239 275 3,100 -536 Descending Houston Center
Thu 07:06:14 PM 29.8178 -95.5494 88° East 219 252 3,000 -358 Descending Houston Center
Thu 07:06:30 PM 29.8164 -95.5225 93° East 202 232 2,700 -857 Descending Houston Center
Thu 07:07:17 PM 29.8158 -95.4839 91° East 210 242 2,100 -689 Descending Houston Center
Thu 07:07:31 PM 29.8128 -95.4603 98° East 184 212 2,000 -97 Descending Houston Center
Thu 07:08:19 PM 29.7836 -95.4433 153° Southeast 178 205 2,000  Level Houston Center
Thu 07:08:26 PM 29.7772 -95.4381 144° Southeast 145 167 2,000  Level Houston Center
Thu 07:09:21 PM 29.7561 -95.4114 132° Southeast 156 180 2,000  Level Houston Center
Thu 07:09:27 PM 29.7514 -95.4075 144° Southeast 124 143 2,000  Level Houston Center
Thu 07:10:23 PM 29.7317 -95.3811 131° Southeast 141 162 2,000  Level Houston Center
Thu 07:10:28 PM 29.7275 -95.3767 137° Southeast 130 150 2,000 -358 Level Houston Center
Thu 07:11:30 PM 29.7064 -95.3528 135° Southeast 107 123 1,600 -403 Descending Houston Center
Thu 07:12:27 PM 29.6900 -95.3314 131° Southeast 113 130 1,200 -492 Descending Houston Center
Thu 07:12:31 PM 29.6850 -95.3264 139° Southeast 97 112 1,100 -554 Descending Houston Center
Thu 07:13:32 PM 29.6664 -95.3069 138° Southeast 89 102 600 -500 Descending Houston Center
Thu 07:14:31 PM 29.6506 -95.2850 130° Southeast 94 108 100 -508 Descending Houston Center

Login

Don't have an account? Register now (free) for customized features, flight alerts, and more!